Pembroke, KY

9:05 AM CDT on July 05, 2015 (GMT -0500)
Calvin Drive | | Change Station
CLOSE
Current Station
Personal Weather Station
Location: Hopkinsville, KY
Elevation: 541 ft
Nearby Weather Stations

Elev 541 ft 36.84 °N, 87.47 °W | Updated 3 seconds ago

Mostly Cloudy
Mostly Cloudy
78.1 °F
Feels Like 81 °F
N
2.2
Wind Variable Wind from SW
Gusts 3.1 mph

Today
High -- | Low -- °F
--% Chance of Precip.
Yesterday
High -- | Low -- °F
Precip. -- in
5:36 AM 8:11 PM
Waning Gibbous, 84% visible
Pressure 30.07 in
Visibility 9.0 miles
Clouds Mostly Cloudy 800 ft
Heat Index 81 °F
Dew Point 72 °F
Humidity 83%
Rainfall 0.00 in
Snow Depth Not available.
UV 2 out of 12
Pollen .50 out of 12
Air Quality Not available.
Flu Activity Not available.
METAR KHOP 051358Z AUTO 24007KT 9SM BKN008 23/21 A3008 RMK AO2 SLP183 T02340211

More Conditions Fewer Conditions

Pressure 30.07 in
Visibility 9.0 miles
Clouds Mostly Cloudy 800 ft
Heat Index 81 °F
Dew Point 72 °F
Humidity 83%
Rainfall 0.00 in
Snow Depth Not available.
UV 2 out of 12
Pollen .50 out of 12
Air Quality Not available.
Flu Activity Not available.
METAR KHOP 051358Z AUTO 24007KT 9SM BKN008 23/21 A3008 RMK AO2 SLP183 T02340211

More Conditions Fewer Conditions

10-Day Weather Forecast

×

Almanac

Astronomy

Jul. 05, 2015 Rise Set
Actual Time
Civil Twilight
Nautical Twilight
Astronomical Twilight
Moon
Length of Visible Light
Length of Day
Tomorrow will be .
, % of the Moon is Illuminated

Today's Extremes

State Highs State Lows

Community

WunderPhotos

Upload Photos

1,835,259 photos uploaded!

WunderBlogs® & News

Nearby

Air Quality

  Air Quality AQ Index Pollutant
Not available.

Snow Depth

Station Depth Elevation

Earthquake Activity

City Distance Mag. Time & Date
Minimum magnitude displayed is 2.5.

Coastal Water Temperatures

Place Temperature

Stations

Nearby Weather Stations

Station Location Temp. Windchill Dew Point Humidity Wind Precip. Elev Updated Type